Create Tblcommutelog Verified Points Advance Search
| # | Trip ID | Id Commuter | Trip Date | Trip Num | Current Lat | Current Lng | Delta Distance | Current Time | Activity | Activity Confidence | Current Speed | |
|---|---|---|---|---|---|---|---|---|---|---|---|---|
| 69741 | 251020_783924_16651731_1538 | 783924 | (not set) | (not set) | 38.296431929916 | -77.499480529028 | 48.8849 | 2025-10-20 17:33:11 | in_vehicle | 100 | 3.1963307017622 | |
| 69742 | 251020_739501_16604607_1728 | 739501 | (not set) | (not set) | 38.860335510042 | -77.048094054236 | 2.4121 | 2025-10-20 17:33:12 | in_vehicle | 100 | 3.7596001680868 | |
| 69743 | 251020_783590_16651319_1729 | 783590 | (not set) | (not set) | 39.052205 | -76.993671 | 1.4541 | 2025-10-20 17:33:14 | in_vehicle | 100 | 5.8338623297898 | |
| 69744 | 251020_788397_16657014_1653 | 788397 | (not set) | (not set) | 39.128443766667 | -76.862976966667 | 16.5046 | 2025-10-20 17:33:13 | in_vehicle | 100 | 13.017783221723 | |
| 69745 | 251020_789050_16657820_1719 | 789050 | (not set) | (not set) | 38.950113392891 | -77.001440665252 | 4.6825 | 2025-10-20 17:33:14 | in_vehicle | 100 | 7.975180380341 | |
| 69746 | 251020_789050_16657820_1719 | 789050 | (not set) | (not set) | 38.950113392891 | -77.001440665252 | 4.6825 | 2025-10-20 17:33:14 | in_vehicle | 100 | 7.975180380341 | |
| 69747 | 251020_786839_16655227_1702 | 786839 | (not set) | (not set) | 39.455122988502 | -76.267081642993 | 12.3791 | 2025-10-20 17:33:14 | in_vehicle | 100 | 5.9411517519469 | |
| 69748 | 251020_787413_16655899_1723 | 787413 | (not set) | (not set) | 39.031274538055 | -77.112235797574 | 1.5449 | 2025-10-20 17:33:14 | on_bicycle | 100 | 1.8373313544395 | |
| 69749 | 251020_773112_16640434_1718 | 773112 | (not set) | (not set) | 38.917397425408 | -77.058327463105 | 2.2229 | 2025-10-20 17:33:14 | on_bicycle | 100 | 3.1963307017622 | |
| 69750 | 251020_773112_16640434_1718 | 773112 | (not set) | (not set) | 38.917397425408 | -77.058327463105 | 2.2229 | 2025-10-20 17:33:14 | on_bicycle | 100 | 3.1963307017622 | |
| 69751 | 251020_789050_16657820_1719 | 789050 | (not set) | (not set) | 38.950250690289 | -77.001491622857 | 4.6923 | 2025-10-20 17:33:15 | in_vehicle | 100 | 7.5147299435836 | |
| 69752 | 251020_789050_16657820_1719 | 789050 | (not set) | (not set) | 38.950250690289 | -77.001491622857 | 4.6923 | 2025-10-20 17:33:15 | in_vehicle | 100 | 7.5147299435836 | |
| 69753 | 251020_784278_16652182_1633 | 784278 | (not set) | (not set) | 38.977948139814 | -77.019106652865 | 6.668 | 2025-10-20 17:33:16 | in_vehicle | 100 | 12.02535606677 | |
| 69754 | 251020_789382_16658224_1726 | 789382 | (not set) | (not set) | 38.830958388184 | -77.114330571732 | 0.3595 | 2025-10-20 17:33:18 | in_vehicle | 100 | 6.1423194184913 | |
| 69755 | 251020_789382_16658224_1726 | 789382 | (not set) | (not set) | 38.830958388184 | -77.114330571732 | 0.3595 | 2025-10-20 17:33:18 | in_vehicle | 100 | 6.1423194184913 | |
| 69756 | 251020_785147_16653236_1642 | 785147 | (not set) | (not set) | 38.997662745072 | -77.897125373094 | 28.4208 | 2025-10-20 17:33:19 | in_vehicle | 100 | 9.0838377426306 | |
| 69757 | 251020_781236_16648911_1728 | 781236 | (not set) | (not set) | 38.978087469114 | -77.093362415099 | 0.7015 | 2025-10-20 17:33:20 | unknown | 100 | 4.5463892639052 | |
| 69758 | 251020_780836_16648513_1647 | 780836 | (not set) | (not set) | 38.915678316667 | -77.2265835 | 11.284 | 2025-10-20 17:33:20 | in_vehicle | 100 | 5.7712768335315 | |
| 69759 | 251020_786375_16654695_1659 | 786375 | (not set) | (not set) | 38.86868982852 | -76.968978701718 | 5.499 | 2025-10-20 17:33:20 | in_vehicle | 100 | 4.2781657085125 | |
| 69760 | 251020_789382_16658224_1726 | 789382 | (not set) | (not set) | 38.830528028674 | -77.114006599714 | 0.394 | 2025-10-20 17:33:22 | still | 33 | 6.155730596261 |